Gorham, North Dakota
Current Conditions -  °F | °C
As of 3:35 PM on Sunday 23 Nov 2014 (Local Time) from K20U Reporting Station
Light Snow Light Snow  
Wind Chill:   Ceiling: 1800
Heat Index: 23°   Visibility: 8mi
Dew Point: 18°   Wind: 20mph
Humidity: 80%   Direction: 310°NW
Pressure: 29.77"   Gusts: 32mph
Location:  47.131°N, 103.355°W
Report Text: K20U 232235Z AUTO 31017G28KT 8SM -SN OVC018 M05/M08 A2977 RMK AO2
Loading
Personal Weather Stations






























Interactive Weather Map New forecast layout! Learn more

10-Day Weather Forecast

Advertisements
Track Severe Weather on mobile